Time;durP1;ratioP1;P1;durP2;ratioP2;P2;SDS_P1;SDS_P2;PMS_P1;PMS_P2;Temp;Humidity;BMP_temperature;BMP_pressure;BME280_temperature;BME280_humidity;BME280_pressure;Samples;Min_cycle;Max_cycle;Signal;HPM_P1;HPM_P2
2022/12/20 00:01:49;;;;;;;0.50;0.50;;;;;;;9.88;92.05;101304.94;4897930;29;20032;-62
2022/12/20 00:04:14;;;;;;;0.43;0.43;;;;;;;9.88;92.08;101315.91;4900535;29;20435;-61
2022/12/20 00:06:40;;;;;;;0.50;0.50;;;;;;;9.82;92.53;101309.38;4904256;29;20111;-62
2022/12/20 00:09:10;;;;;;;0.47;0.47;;;;;;;9.84;92.01;101299.06;4894210;29;20380;-62
2022/12/20 00:11:39;;;;;;;0.50;0.50;;;;;;;9.88;91.69;101318.66;4910511;29;20040;-62
2022/12/20 00:14:05;;;;;;;0.50;0.50;;;;;;;9.90;92.06;101315.72;4895434;29;20036;-62
2022/12/20 00:16:30;;;;;;;0.47;0.47;;;;;;;9.98;91.47;101302.59;4912147;29;20039;-61
2022/12/20 00:19:00;;;;;;;0.50;0.50;;;;;;;10.01;91.31;101298.59;4896959;29;20032;-61
2022/12/20 00:21:26;;;;;;;0.50;0.50;;;;;;;9.99;91.19;101301.56;4905664;29;20576;-62
2022/12/20 00:23:52;;;;;;;0.50;0.50;;;;;;;10.08;90.41;101297.47;4899220;29;20024;-62
2022/12/20 00:26:21;;;;;;;0.50;0.50;;;;;;;10.11;90.23;101304.47;4906152;29;20036;-62
2022/12/20 00:28:46;;;;;;;;;;;;;;;10.24;90.51;101298.09;4900474;29;20119;-62
2022/12/20 00:31:15;;;;;;;0.50;0.50;;;;;;;10.19;89.57;101290.50;4912664;29;20082;-62
2022/12/20 00:33:43;;;;;;;0.38;0.38;;;;;;;10.19;89.83;101295.13;4905821;29;20036;-62
2022/12/20 00:36:09;;;;;;;0.57;0.57;;;;;;;10.20;89.86;101285.84;4894043;29;20372;-63
2022/12/20 00:38:34;;;;;;;0.50;0.50;;;;;;;10.19;89.75;101278.66;4894037;29;20028;-60
2022/12/20 00:41:10;;;;;;;0.40;0.40;;;;;;;10.25;89.78;101283.34;4892941;29;20111;-61
2022/12/20 00:43:36;;;;;;;0.55;0.55;;;;;;;10.26;89.29;101280.34;4894415;29;20535;-62
2022/12/20 00:46:02;;;;;;;0.40;0.40;;;;;;;10.26;89.47;101274.88;4906136;29;20476;-62
2022/12/20 00:48:29;;;;;;;0.50;0.50;;;;;;;10.29;88.95;101268.09;4908371;29;20024;-62
2022/12/20 00:50:58;;;;;;;0.40;0.40;;;;;;;10.38;88.68;101259.38;4907077;29;20043;-60
2022/12/20 00:53:23;;;;;;;0.50;0.50;;;;;;;10.49;87.70;101257.00;4895538;29;20043;-62
2022/12/20 00:55:48;;;;;;;0.50;0.50;;;;;;;10.45;87.97;101253.88;4903297;29;20029;-62
2022/12/20 00:58:14;;;;;;;0.40;0.40;;;;;;;10.48;87.85;101258.06;4901382;29;20063;-62
2022/12/20 01:00:39;;;;;;;0.50;0.50;;;;;;;10.45;87.84;101273.09;4892139;29;20080;-62
2022/12/20 01:03:05;;;;;;;0.43;0.43;;;;;;;10.48;88.15;101266.31;4893353;29;20060;-61
2022/12/20 01:05:31;;;;;;;0.43;0.43;;;;;;;10.49;87.72;101265.22;4891733;29;20037;-61
2022/12/20 01:07:57;;;;;;;0.38;0.38;;;;;;;10.51;87.61;101266.72;4879393;29;20051;-62
2022/12/20 01:10:22;;;;;;;0.40;0.40;;;;;;;10.54;87.52;101262.66;4892774;29;20040;-62
2022/12/20 01:12:47;;;;;;;0.43;0.43;;;;;;;10.52;88.26;101268.38;4891389;29;20119;-62
2022/12/20 01:15:14;;;;;;;0.40;0.40;;;;;;;10.51;89.08;101274.13;4899640;29;20036;-62
2022/12/20 01:17:40;;;;;;;0.50;0.50;;;;;;;10.47;90.45;101267.38;4898585;29;20033;-62
2022/12/20 01:20:06;;;;;;;0.50;0.50;;;;;;;10.44;91.63;101282.41;4892680;29;20035;-62
2022/12/20 01:22:31;;;;;;;0.40;0.40;;;;;;;10.31;93.21;101283.28;4893056;29;20036;-62
2022/12/20 01:24:57;;;;;;;0.43;0.43;;;;;;;10.26;93.98;101282.25;4875596;29;20033;-62
2022/12/20 01:27:22;;;;;;;0.50;0.50;;;;;;;10.27;94.36;101286.69;4892849;29;20377;-63
2022/12/20 01:29:48;;;;;;;0.50;0.50;;;;;;;10.12;96.09;101282.28;4906169;29;20179;-62
2022/12/20 01:32:13;;;;;;;0.40;0.40;;;;;;;10.08;97.51;101285.66;4912008;29;20582;-62
2022/12/20 01:34:38;;;;;;;0.50;0.50;;;;;;;10.03;98.22;101282.72;4909548;29;20036;-62
2022/12/20 01:37:04;;;;;;;0.50;0.50;;;;;;;9.99;99.45;101282.34;4905600;29;20028;-62
2022/12/20 01:39:29;;;;;;;0.52;0.52;;;;;;;9.92;100.00;101292.47;4907389;29;20096;-62
2022/12/20 01:41:54;;;;;;;0.40;0.40;;;;;;;9.81;100.00;101280.28;4911920;29;20029;-63
2022/12/20 01:44:19;;;;;;;0.55;0.55;;;;;;;9.85;100.00;101278.78;4908668;29;20092;-62
2022/12/20 01:46:47;;;;;;;0.50;0.50;;;;;;;9.73;100.00;101279.66;4910966;29;20178;-62
2022/12/20 01:49:23;;;;;;;0.50;0.50;;;;;;;9.63;100.00;101269.16;4891152;29;20315;-62
2022/12/20 01:51:54;;;;;;;0.43;0.43;;;;;;;9.60;100.00;101269.56;4892175;29;20044;-62
2022/12/20 01:54:26;;;;;;;0.45;0.45;;;;;;;9.46;100.00;101267.91;4893252;29;20025;-62
2022/12/20 01:56:57;;;;;;;0.50;0.50;;;;;;;9.41;100.00;101265.78;4893967;29;20044;-62
2022/12/20 01:59:24;;;;;;;0.52;0.52;;;;;;;9.36;100.00;101254.63;4907419;29;20032;-63
2022/12/20 02:01:49;;;;;;;0.50;0.50;;;;;;;9.34;100.00;101248.53;4897306;29;20170;-62
2022/12/20 02:04:15;;;;;;;0.50;0.50;;;;;;;9.36;100.00;101235.44;4894068;29;20555;-63
2022/12/20 02:06:40;;;;;;;0.50;0.50;;;;;;;9.36;100.00;101235.44;4892247;29;20033;-61
2022/12/20 02:09:07;;;;;;;0.50;0.50;;;;;;;9.42;100.00;101241.97;4892296;29;20040;-63
2022/12/20 02:14:41;;;;;;;0.50;0.50;;;;;;;9.43;100.00;101222.56;4895412;29;20377;-62
2022/12/20 02:17:28;;;;;;;0.50;0.50;;;;;;;9.40;100.00;101213.94;4909041;29;20036;-62
2022/12/20 02:20:06;;;;;;;0.52;0.52;;;;;;;9.58;100.00;101214.94;4895394;29;20025;-62
2022/12/20 02:22:47;;;;;;;0.60;0.60;;;;;;;9.48;100.00;101217.28;4895617;29;20035;-61
2022/12/20 02:25:37;;;;;;;0.55;0.55;;;;;;;9.48;100.00;101198.09;4903753;29;20040;-62
2022/12/20 02:28:05;;;;;;;0.50;0.50;;;;;;;9.47;100.00;101198.28;4927356;29;20038;-62
2022/12/20 02:30:36;;;;;;;;;;;;;;;9.51;100.00;101196.81;4932410;29;20122;-60
2022/12/20 02:33:03;;;;;;;0.50;0.50;;;;;;;9.39;100.00;101207.59;4933007;29;19919;-62
2022/12/20 02:35:31;;;;;;;0.50;0.50;;;;;;;9.39;100.00;101201.28;4921922;29;20036;-63
2022/12/20 02:37:58;;;;;;;;;;;;;;;9.39;100.00;101190.31;4913410;29;20917;-62
2022/12/20 02:40:35;;;;;;;0.50;0.50;;;;;;;9.33;100.00;101187.38;4916199;29;20369;-62
2022/12/20 02:45:14;;;;;;;0.50;0.50;;;;;;;9.34;100.00;101182.72;4914304;29;20398;-61
2022/12/20 02:45:51;;;;;;;0.40;0.40;;;;;;;9.35;100.00;101188.00;4912790;29;20051;-61
2022/12/20 02:48:17;;;;;;;0.50;0.50;;;;;;;9.38;100.00;101185.88;4913934;29;20017;-62
2022/12/20 02:50:50;;;;;;;0.47;0.47;;;;;;;9.38;100.00;101194.97;4913521;29;20036;-62
2022/12/20 02:53:16;;;;;;;0.50;0.50;;;;;;;9.45;100.00;101187.56;4930387;29;20044;-62
2022/12/20 02:55:52;;;;;;;0.50;0.50;;;;;;;9.38;100.00;101178.50;4920896;29;20028;-62
2022/12/20 02:58:33;;;;;;;0.50;0.50;;;;;;;9.42;100.00;101174.25;4914337;29;20036;-62
2022/12/20 03:01:03;;;;;;;0.50;0.50;;;;;;;9.45;100.00;101178.50;4913867;29;20371;-62
2022/12/20 03:03:33;;;;;;;0.43;0.43;;;;;;;9.47;100.00;101171.72;4920208;29;20035;-62
2022/12/20 03:05:58;;;;;;;0.45;0.45;;;;;;;9.55;100.00;101185.19;4917690;29;20035;-63
2022/12/20 03:08:24;;;;;;;0.40;0.40;;;;;;;9.64;100.00;101179.50;4913677;29;20032;-63
2022/12/20 03:10:52;;;;;;;0.50;0.50;;;;;;;9.63;100.00;101170.44;4908797;29;20461;-62
2022/12/20 03:13:17;;;;;;;0.50;0.50;;;;;;;9.66;100.00;101174.63;4913951;29;20368;-62
2022/12/20 03:15:43;;;;;;;0.40;0.40;;;;;;;9.67;100.00;101176.28;4912410;29;20049;-62
2022/12/20 03:18:08;;;;;;;0.50;0.50;;;;;;;9.70;100.00;101167.66;4914669;29;20030;-63
2022/12/20 03:20:34;;;;;;;0.40;0.40;;;;;;;9.76;100.00;101170.34;4913142;29;20043;-62
2022/12/20 03:22:59;;;;;;;0.40;0.40;;;;;;;9.86;100.00;101176.22;4911728;29;20028;-62
2022/12/20 03:25:25;;;;;;;0.50;0.50;;;;;;;9.93;100.00;101180.81;4920639;29;20059;-63
2022/12/20 03:27:50;;;;;;;0.40;0.40;;;;;;;9.92;100.00;101168.16;4932869;29;20119;-63
2022/12/20 03:30:15;;;;;;;0.40;0.40;;;;;;;9.94;100.00;101171.56;4915517;29;20502;-62
2022/12/20 03:32:41;;;;;;;0.50;0.50;;;;;;;9.98;100.00;101170.88;4929147;29;20425;-62
2022/12/20 03:35:07;;;;;;;0.50;0.50;;;;;;;10.03;100.00;101164.72;4924256;29;20472;-62
2022/12/20 03:37:32;;;;;;;0.40;0.40;;;;;;;10.10;100.00;101168.31;4917319;29;20042;-63
2022/12/20 03:39:57;;;;;;;0.40;0.40;;;;;;;10.10;100.00;101162.81;4932445;29;20111;-62
2022/12/20 03:42:22;;;;;;;0.40;0.40;;;;;;;10.19;100.00;101169.72;4928685;29;20047;-62
2022/12/20 03:44:48;;;;;;;0.40;0.40;;;;;;;10.20;100.00;101163.16;4917572;29;20482;-62
2022/12/20 03:47:13;;;;;;;0.50;0.50;;;;;;;10.24;100.00;101180.06;4921390;29;20028;-63
2022/12/20 03:49:39;;;;;;;0.50;0.50;;;;;;;10.29;100.00;101192.09;4912714;29;20036;-63
2022/12/20 03:52:04;;;;;;;0.50;0.50;;;;;;;10.29;100.00;101191.22;4913314;29;20032;-62
2022/12/20 03:54:29;;;;;;;0.30;0.30;;;;;;;10.28;100.00;101184.03;4913056;29;20179;-63
2022/12/20 03:56:55;;;;;;;0.50;0.50;;;;;;;10.26;100.00;101180.69;4910376;29;20032;-63
2022/12/20 03:59:20;;;;;;;0.40;0.40;;;;;;;10.25;100.00;101173.53;4913573;29;20065;-63
2022/12/20 04:01:46;;;;;;;0.47;0.47;;;;;;;10.30;100.00;101171.78;4921594;29;20040;-60
2022/12/20 04:04:13;;;;;;;0.32;0.32;;;;;;;10.32;100.00;101168.81;4912178;29;20454;-61
2022/12/20 04:06:38;;;;;;;0.50;0.50;;;;;;;10.33;100.00;101163.09;4922218;29;20020;-61
2022/12/20 04:09:04;;;;;;;0.40;0.40;;;;;;;10.45;99.69;101167.91;4926144;29;20039;-62
2022/12/20 04:11:29;;;;;;;0.40;0.40;;;;;;;10.33;100.00;101163.09;4926550;29;20035;-62
2022/12/20 04:13:54;;;;;;;0.50;0.50;;;;;;;10.43;99.83;101175.50;4931208;29;20078;-62
2022/12/20 04:16:22;;;;;;;0.45;0.45;;;;;;;10.45;99.73;101163.25;4911954;29;20050;-62
2022/12/20 04:18:48;;;;;;;0.40;0.40;;;;;;;10.49;99.82;101158.13;4910159;29;20463;-63
2022/12/20 04:21:14;;;;;;;0.40;0.40;;;;;;;10.46;99.80;101164.94;4926264;29;20024;-63
2022/12/20 04:23:41;;;;;;;0.30;0.30;;;;;;;10.45;99.85;101167.91;4914499;29;20391;-62
2022/12/20 04:26:08;;;;;;;0.40;0.40;;;;;;;10.49;99.77;101171.88;4914917;29;20047;-60
2022/12/20 04:28:34;;;;;;;0.40;0.40;;;;;;;10.55;98.96;101171.00;4912462;29;20016;-62
2022/12/20 04:31:00;;;;;;;0.40;0.40;;;;;;;10.55;99.01;101163.59;4912460;29;20031;-62
2022/12/20 04:33:26;;;;;;;0.40;0.40;;;;;;;10.55;98.92;101163.59;4924220;29;20032;-63
2022/12/20 04:35:53;;;;;;;0.40;0.40;;;;;;;10.57;99.17;101157.88;4910206;29;20481;-62
2022/12/20 04:38:19;;;;;;;0.40;0.40;;;;;;;10.57;98.80;101155.13;4911419;29;20036;-62
2022/12/20 04:40:51;;;;;;;0.50;0.50;;;;;;;10.63;98.11;101151.47;4912389;29;20070;-62
2022/12/20 04:43:17;;;;;;;0.40;0.40;;;;;;;10.59;98.36;101147.50;4909151;29;20027;-62
2022/12/20 04:45:43;;;;;;;0.30;0.30;;;;;;;10.58;98.91;101151.31;4911719;29;20119;-62
2022/12/20 04:48:09;;;;;;;0.50;0.50;;;;;;;10.65;97.95;101152.94;4922268;29;20034;-62
2022/12/20 04:50:34;;;;;;;0.43;0.43;;;;;;;10.57;98.62;101149.63;4931565;29;20031;-62
2022/12/20 04:55:43;;;;;;;0.30;0.30;;;;;;;10.56;98.76;101147.97;4912291;29;20051;-62
2022/12/20 04:58:09;;;;;;;0.40;0.40;;;;;;;10.59;98.30;101142.00;4917619;29;20118;-59
2022/12/20 05:00:34;;;;;;;0.40;0.40;;;;;;;10.59;98.77;101142.00;4920711;29;20028;-62
2022/12/20 05:03:00;;;;;;;0.50;0.50;;;;;;;10.59;98.54;101148.38;4909367;29;20519;-63
2022/12/20 05:05:26;;;;;;;0.50;0.50;;;;;;;10.58;98.97;101145.81;4919287;29;20438;-62
2022/12/20 05:07:51;;;;;;;0.40;0.40;;;;;;;10.60;98.46;101139.06;4930188;29;20078;-62
2022/12/20 05:10:17;;;;;;;0.50;0.50;;;;;;;10.61;98.65;101135.22;4922721;29;20064;-62
2022/12/20 05:12:43;;;;;;;0.40;0.40;;;;;;;10.63;98.46;101132.25;4909872;29;20048;-62
2022/12/20 05:15:09;;;;;;;0.47;0.47;;;;;;;10.59;98.94;101126.38;4912289;29;20031;-62
2022/12/20 05:17:35;;;;;;;0.35;0.35;;;;;;;10.64;98.51;101128.44;4911981;29;20032;-63
2022/12/20 05:20:00;;;;;;;0.40;0.40;;;;;;;10.66;98.62;101112.59;4910931;29;20035;-62
2022/12/20 05:27:55;;;;;;;0.40;0.40;;;;;;;10.66;98.67;101098.84;4910718;29;20125;-62
2022/12/20 05:30:21;;;;;;;0.40;0.40;;;;;;;10.64;99.14;101107.31;4913536;29;20047;-62
2022/12/20 05:32:46;;;;;;;0.47;0.47;;;;;;;10.64;99.60;101106.47;4924796;29;20086;-62
2022/12/20 05:35:11;;;;;;;0.32;0.32;;;;;;;10.60;100.00;101105.25;4910662;29;20036;-62
2022/12/20 05:37:37;;;;;;;0.50;0.50;;;;;;;10.60;100.00;101105.25;4924974;29;20074;-62
2022/12/20 05:40:03;;;;;;;0.40;0.40;;;;;;;10.64;99.55;101101.84;4911762;29;20336;-61
2022/12/20 05:42:29;;;;;;;0.40;0.40;;;;;;;10.65;99.88;101098.00;4909444;29;20326;-61
2022/12/20 05:44:54;;;;;;;0.40;0.40;;;;;;;10.62;100.00;101092.97;4918982;29;20086;-62
2022/12/20 05:47:19;;;;;;;0.40;0.40;;;;;;;10.67;99.73;101100.53;4926048;29;20028;-62
2022/12/20 05:49:44;;;;;;;0.40;0.40;;;;;;;10.72;99.35;101092.44;4916088;29;20082;-62
2022/12/20 05:52:10;;;;;;;0.40;0.40;;;;;;;10.68;99.56;101085.72;4919587;29;20379;-60
2022/12/20 05:54:35;;;;;;;0.32;0.32;;;;;;;10.64;99.76;101095.47;4912125;29;20024;-62
2022/12/20 05:57:00;;;;;;;0.40;0.40;;;;;;;10.66;99.80;101079.63;4917067;29;20083;-62
2022/12/20 05:59:25;;;;;;;0.30;0.30;;;;;;;10.67;99.58;101084.03;4915973;29;20036;-62
2022/12/20 06:01:51;;;;;;;0.40;0.40;;;;;;;10.65;99.36;101072.47;4908128;29;20167;-63
2022/12/20 06:04:16;;;;;;;0.40;0.40;;;;;;;10.69;99.04;101065.41;4915586;29;20444;-61
2022/12/20 06:06:41;;;;;;;0.40;0.40;;;;;;;10.68;99.20;101066.50;4923724;29;20031;-62
2022/12/20 06:09:07;;;;;;;0.40;0.40;;;;;;;10.68;98.90;101072.00;4913084;29;20495;-62
2022/12/20 06:11:32;;;;;;;0.47;0.47;;;;;;;10.68;98.93;101066.50;4928747;29;20031;-62
2022/12/20 06:13:58;;;;;;;0.40;0.40;;;;;;;10.67;98.63;101053.00;4910791;29;20066;-63
2022/12/20 06:16:24;;;;;;;0.50;0.45;;;;;;;10.61;98.98;101047.34;4911560;29;20032;-62
2022/12/20 06:18:50;;;;;;;0.40;0.40;;;;;;;10.64;98.65;101046.91;4922196;29;20124;-63
2022/12/20 06:21:15;;;;;;;0.40;0.40;;;;;;;10.61;98.74;101050.09;4910681;29;20036;-62
2022/12/20 06:23:41;;;;;;;0.40;0.40;;;;;;;10.63;98.24;101049.84;4910025;29;20032;-62
2022/12/20 06:26:08;;;;;;;0.40;0.40;;;;;;;10.61;98.40;101052.00;4911208;29;20087;-63
2022/12/20 06:28:34;;;;;;;0.40;0.40;;;;;;;10.63;98.07;101038.88;4924144;29;20059;-61
2022/12/20 06:31:00;;;;;;;0.40;0.40;;;;;;;10.60;98.00;101048.41;4923535;29;20067;-62
2022/12/20 06:33:25;;;;;;;0.32;0.32;;;;;;;10.68;96.92;101061.00;4928901;29;20450;-63
2022/12/20 06:35:51;;;;;;;0.47;0.47;;;;;;;10.65;96.79;101053.22;4916966;29;20111;-63
2022/12/20 06:38:17;;;;;;;0.38;0.38;;;;;;;10.63;96.98;101060.84;4928972;29;20059;-62
2022/12/20 06:40:43;;;;;;;0.30;0.30;;;;;;;10.57;97.05;101064.50;4930054;29;20032;-62
2022/12/20 06:43:08;;;;;;;0.40;0.40;;;;;;;10.55;96.93;101056.50;4917203;29;20055;-62
2022/12/20 06:45:33;;;;;;;0.40;0.40;;;;;;;10.55;96.72;101058.41;4913869;29;20032;-63
2022/12/20 06:47:59;;;;;;;0.35;0.35;;;;;;;10.55;96.62;101058.41;4922294;29;20039;-63
2022/12/20 06:50:24;;;;;;;0.50;0.50;;;;;;;10.51;96.97;101057.16;4925480;29;20032;-63
2022/12/20 06:52:49;;;;;;;0.35;0.35;;;;;;;10.51;96.89;101051.66;4930118;29;20039;-63
2022/12/20 06:55:15;;;;;;;0.40;0.40;;;;;;;10.47;96.86;101045.78;4933231;29;20032;-62
2022/12/20 06:57:40;;;;;;;0.30;0.30;;;;;;;10.45;96.56;101055.31;4931874;29;20486;-62
2022/12/20 07:00:07;;;;;;;0.40;0.40;;;;;;;10.41;96.49;101046.69;4919646;29;20067;-62
2022/12/20 07:02:33;;;;;;;0.40;0.40;;;;;;;10.45;96.13;101053.41;4917536;29;20051;-62
2022/12/20 07:04:58;;;;;;;0.40;0.40;;;;;;;10.44;96.14;101056.38;4911039;29;20036;-62
2022/12/20 07:07:23;;;;;;;0.40;0.40;;;;;;;10.47;95.72;101050.44;4922327;29;20127;-62
2022/12/20 07:09:49;;;;;;;0.40;0.40;;;;;;;10.49;95.02;101056.53;4909611;29;20130;-62
2022/12/20 07:12:14;;;;;;;0.40;0.40;;;;;;;10.54;94.69;101052.06;4917673;29;20036;-62
2022/12/20 07:14:40;;;;;;;0.43;0.43;;;;;;;10.55;94.65;101058.41;4914089;29;20062;-62
2022/12/20 07:17:06;;;;;;;0.35;0.35;;;;;;;10.55;94.36;101056.50;4913335;29;20036;-61
2022/12/20 07:19:31;;;;;;;0.50;0.30;;;;;;;10.59;94.01;101054.97;4920462;29;20122;-62
2022/12/20 07:21:57;;;;;;;0.40;0.40;;;;;;;10.60;93.95;101048.41;4929515;29;20172;-60
2022/12/20 07:24:22;;;;;;;0.30;0.30;;;;;;;10.67;92.58;101040.09;4911895;29;20340;-63
2022/12/20 07:26:47;;;;;;;0.40;0.40;;;;;;;10.76;92.50;101054.38;4922983;29;20028;-62
2022/12/20 07:29:13;;;;;;;0.40;0.40;;;;;;;10.77;91.80;101047.81;4911923;29;20036;-62
2022/12/20 07:31:38;;;;;;;0.40;0.40;;;;;;;10.78;92.03;101049.50;4923120;29;20032;-62
2022/12/20 07:34:03;;;;;;;0.40;0.40;;;;;;;10.77;91.88;101039.56;4913336;29;20028;-62
2022/12/20 07:36:29;;;;;;;0.40;0.40;;;;;;;10.77;91.61;101045.91;4924676;29;20399;-62
2022/12/20 07:38:54;;;;;;;0.40;0.40;;;;;;;10.79;91.79;101054.75;4913688;29;20115;-63
2022/12/20 07:41:20;;;;;;;0.40;0.40;;;;;;;10.82;90.92;101056.22;4913883;29;20024;-62
2022/12/20 07:43:45;;;;;;;0.40;0.40;;;;;;;10.91;90.24;101058.44;4922170;29;20031;-62
2022/12/20 07:46:13;;;;;;;0.40;0.40;;;;;;;10.89;90.49;101060.56;4919151;29;20479;-62
2022/12/20 07:48:39;;;;;;;0.43;0.43;;;;;;;10.88;90.40;101058.88;4921070;29;20028;-63
2022/12/20 07:51:17;;;;;;;0.32;0.32;;;;;;;10.97;90.88;101055.84;4920249;29;20490;-62
2022/12/20 07:53:47;;;;;;;0.40;0.40;;;;;;;10.89;90.30;101065.22;4919904;29;20498;-62
2022/12/20 07:56:14;;;;;;;0.30;0.30;;;;;;;10.88;90.50;101069.88;4924211;29;20421;-62
2022/12/20 07:58:42;;;;;;;0.30;0.30;;;;;;;10.93;89.90;101074.69;4930289;29;20040;-62
2022/12/20 08:01:09;;;;;;;0.45;0.45;;;;;;;10.96;90.13;101074.25;4930388;29;20023;-61
2022/12/20 08:03:41;;;;;;;0.50;0.50;;;;;;;10.92;90.71;101075.78;4928070;29;20067;-60
2022/12/20 08:06:07;;;;;;;0.40;0.40;;;;;;;10.86;91.54;101083.03;4913136;29;20042;-62
2022/12/20 08:08:36;;;;;;;0.32;0.32;;;;;;;10.84;91.78;101081.56;4929126;29;20399;-61
2022/12/20 08:11:03;;;;;;;0.40;0.40;;;;;;;10.77;93.11;101081.63;4932321;29;20038;-63
2022/12/20 08:13:30;;;;;;;0.30;0.30;;;;;;;10.77;94.31;101083.53;4923377;29;20399;-63
2022/12/20 08:15:55;;;;;;;0.40;0.40;;;;;;;10.68;95.70;101072.00;4926283;29;20051;-63
2022/12/20 08:18:21;;;;;;;0.40;0.40;;;;;;;10.53;97.12;101072.34;4929857;29;20090;-63
2022/12/20 08:20:46;;;;;;;0.40;0.40;;;;;;;10.45;97.80;101069.88;4925759;29;20103;-62
2022/12/20 08:23:12;;;;;;;0.50;0.50;;;;;;;10.47;98.38;101070.50;4893596;29;20029;-63
2022/12/20 08:25:37;;;;;;;0.40;0.40;;;;;;;10.39;98.54;101063.41;4908134;29;20040;-61
2022/12/20 08:28:02;;;;;;;0.40;0.40;;;;;;;10.37;99.35;101076.47;4912705;29;20024;-63
2022/12/20 08:30:28;;;;;;;0.52;0.50;;;;;;;10.31;100.00;101068.31;4913155;29;20471;-63
2022/12/20 08:32:54;;;;;;;0.40;0.40;;;;;;;10.32;100.00;101080.97;4911795;29;20192;-63
2022/12/20 08:35:20;;;;;;;0.30;0.30;;;;;;;10.26;100.00;101085.44;4912313;29;20028;-63
2022/12/20 08:37:45;;;;;;;0.50;0.50;;;;;;;10.24;100.00;101079.34;4908675;29;20063;-64
2022/12/20 08:40:11;;;;;;;0.40;0.40;;;;;;;10.22;100.00;101075.94;4901008;29;20115;-65
2022/12/20 08:42:37;;;;;;;0.40;0.40;;;;;;;10.20;100.00;101074.50;4918890;29;20066;-61
2022/12/20 08:45:02;;;;;;;0.40;0.40;;;;;;;10.16;100.00;101071.34;4921739;29;20032;-64
2022/12/20 08:47:29;;;;;;;0.43;0.43;;;;;;;10.14;100.00;101071.59;4921104;29;20040;-63
2022/12/20 08:49:54;;;;;;;0.40;0.40;;;;;;;10.14;100.00;101074.31;4908733;29;20352;-63
2022/12/20 08:52:20;;;;;;;0.40;0.40;;;;;;;10.12;100.00;101078.34;4913278;29;20032;-64
2022/12/20 08:54:45;;;;;;;0.40;0.40;;;;;;;10.17;100.00;101070.28;4910575;29;20040;-63
2022/12/20 08:57:11;;;;;;;0.43;0.43;;;;;;;10.10;100.00;101066.75;4914266;29;20036;-60
2022/12/20 08:59:36;;;;;;;0.50;0.50;;;;;;;10.08;100.00;101055.97;4912396;29;20067;-64
2022/12/20 09:02:02;;;;;;;0.40;0.40;;;;;;;10.03;100.00;101063.19;4911617;29;20495;-64
2022/12/20 09:04:27;;;;;;;0.45;0.45;;;;;;;10.05;100.00;101067.41;4909222;29;20060;-63
2022/12/20 09:06:52;;;;;;;0.40;0.40;;;;;;;9.98;100.00;101058.38;4919232;29;20031;-63
2022/12/20 09:09:18;;;;;;;0.45;0.45;;;;;;;9.99;100.00;101065.56;4924877;29;20039;-63
2022/12/20 09:11:43;;;;;;;0.50;0.50;;;;;;;9.95;100.00;101066.22;4906944;29;20059;-63
2022/12/20 09:14:08;;;;;;;0.50;0.50;;;;;;;9.92;100.00;101051.03;4910600;29;20416;-63
2022/12/20 09:16:34;;;;;;;0.40;0.40;;;;;;;9.89;100.00;101054.25;4897163;29;20592;-65
2022/12/20 09:19:01;;;;;;;0.30;0.30;;;;;;;9.89;100.00;101051.50;4917396;29;20114;-69
2022/12/20 09:21:27;;;;;;;0.57;0.57;;;;;;;9.93;100.00;101046.38;4911333;29;20055;-61
2022/12/20 09:23:54;;;;;;;0.50;0.50;;;;;;;9.90;100.00;101050.44;4905099;29;20047;-62
2022/12/20 09:26:21;;;;;;;0.40;0.40;;;;;;;9.92;100.00;101047.44;4908130;29;20103;-62
2022/12/20 09:28:47;;;;;;;0.35;0.35;;;;;;;9.92;100.00;101045.56;4903223;29;20086;-62
2022/12/20 09:31:16;;;;;;;0.52;0.52;;;;;;;9.97;100.00;101053.97;4919847;29;20035;-63
2022/12/20 09:33:42;;;;;;;0.50;0.50;;;;;;;9.97;100.00;101047.63;4907635;29;20028;-63
2022/12/20 09:36:18;;;;;;;0.50;0.50;;;;;;;9.97;100.00;101055.88;4920276;29;20479;-63
2022/12/20 09:38:45;;;;;;;0.50;0.50;;;;;;;9.99;100.00;101049.09;4920045;29;20046;-63
2022/12/20 09:41:33;;;;;;;0.30;0.30;;;;;;;10.07;100.00;101054.31;4913532;29;20073;-62
2022/12/20 09:44:03;;;;;;;0.47;0.47;;;;;;;10.03;100.00;101054.97;4920813;29;20043;-63
2022/12/20 09:46:29;;;;;;;0.47;0.47;;;;;;;10.04;100.00;101062.16;4917420;29;20024;-62
2022/12/20 09:48:55;;;;;;;0.40;0.40;;;;;;;10.06;100.00;101058.13;4925742;29;20035;-62
2022/12/20 09:51:37;;;;;;;0.40;0.40;;;;;;;10.07;100.00;101045.22;4915558;29;20399;-63
2022/12/20 09:54:29;;;;;;;0.50;0.50;;;;;;;10.07;100.00;101053.47;4911355;29;20055;-62
2022/12/20 09:57:16;;;;;;;0.43;0.43;;;;;;;10.08;100.00;101049.66;4910679;29;20031;-62
2022/12/20 09:59:43;;;;;;;0.50;0.50;;;;;;;10.05;100.00;101050.13;4910746;29;20116;-63
2022/12/20 10:02:13;;;;;;;0.45;0.45;;;;;;;10.06;100.00;101049.06;4910820;29;20087;-63
2022/12/20 10:04:38;;;;;;;0.50;0.50;;;;;;;10.09;100.00;101043.97;4909548;29;20024;-63
2022/12/20 10:07:48;;;;;;;0.50;0.50;;;;;;;10.03;100.00;101044.00;4898258;29;20535;-62
2022/12/20 10:10:52;;;;;;;0.40;0.40;;;;;;;10.08;100.00;101041.41;4896996;29;20083;-63
2022/12/20 10:13:45;;;;;;;0.47;0.47;;;;;;;10.11;100.00;101047.31;4897334;29;20051;-62
2022/12/20 10:16:37;;;;;;;0.43;0.43;;;;;;;10.12;100.00;101043.50;4897996;29;20108;-62
2022/12/20 10:19:33;;;;;;;0.40;0.40;;;;;;;10.13;100.00;101038.84;4903271;29;20140;-63
2022/12/20 10:22:11;;;;;;;0.50;0.50;;;;;;;10.15;100.00;101034.00;4901718;29;20051;-62
2022/12/20 10:24:40;;;;;;;0.50;0.50;;;;;;;10.16;100.00;101043.91;4911856;29;20032;-62
2022/12/20 10:27:18;;;;;;;0.50;0.50;;;;;;;10.21;100.00;101038.59;4911249;29;20658;-62
2022/12/20 10:29:45;;;;;;;0.40;0.40;;;;;;;10.24;100.00;101031.81;4903415;29;20481;-62
2022/12/20 10:32:20;;;;;;;0.50;0.50;;;;;;;10.26;100.00;101033.28;4899074;29;22371;-62
2022/12/20 10:34:56;;;;;;;0.50;0.50;;;;;;;10.26;100.00;101030.56;4900189;29;21060;-62
2022/12/20 10:37:21;;;;;;;0.40;0.40;;;;;;;10.33;100.00;101027.75;4900016;29;20040;-62
2022/12/20 10:39:48;;;;;;;0.40;0.40;;;;;;;10.37;100.00;101024.31;4900929;29;20455;-62
2022/12/20 10:42:34;;;;;;;0.50;0.50;;;;;;;10.45;100.00;101023.22;4901709;29;20061;-62
2022/12/20 10:45:01;;;;;;;0.35;0.35;;;;;;;10.50;100.00;101028.03;4899162;29;22260;-62
2022/12/20 10:47:39;;;;;;;0.45;0.45;;;;;;;10.54;100.00;101018.25;4904272;29;20032;-62
2022/12/20 10:50:18;;;;;;;0.40;0.40;;;;;;;10.50;100.00;101019.78;4903931;29;20032;-62
2022/12/20 10:53:00;;;;;;;0.40;0.40;;;;;;;10.45;100.00;101025.13;4912064;29;20443;-63
2022/12/20 10:55:36;;;;;;;0.40;0.40;;;;;;;10.46;100.00;101019.38;4901703;29;20498;-62
2022/12/20 10:58:29;;;;;;;0.52;0.40;;;;;;;10.45;100.00;101020.47;4900026;29;20092;-62
2022/12/20 11:01:09;;;;;;;0.40;0.40;;;;;;;10.37;100.00;101016.09;4895548;29;20525;-62
2022/12/20 11:03:55;;;;;;;0.35;0.35;;;;;;;10.42;100.00;101017.31;4901862;29;20071;-62
2022/12/20 11:06:25;;;;;;;0.50;0.50;;;;;;;10.32;100.00;101015.09;4903293;29;20028;-62
2022/12/20 11:08:51;;;;;;;0.50;0.50;;;;;;;10.22;100.00;101012.81;4901007;29;20028;-62
2022/12/20 11:11:23;;;;;;;0.50;0.50;;;;;;;10.23;100.00;101005.41;4903491;29;20032;-62
2022/12/20 11:13:50;;;;;;;0.40;0.40;;;;;;;10.16;100.00;101010.97;4902534;29;20063;-62
2022/12/20 11:16:50;;;;;;;0.32;0.32;;;;;;;10.25;100.00;101006.91;4903816;29;20036;-63
2022/12/20 11:19:30;;;;;;;0.50;0.50;;;;;;;10.14;100.00;101008.47;4869445;29;20036;-62
2022/12/20 11:22:18;;;;;;;0.40;0.40;;;;;;;10.19;100.00;101005.03;4911764;29;20455;-62
2022/12/20 11:25:17;;;;;;;0.50;0.50;;;;;;;10.13;100.00;101000.44;4916698;29;20038;-62
2022/12/20 11:28:00;;;;;;;0.50;0.50;;;;;;;10.10;100.00;101007.22;4912063;29;20036;-62
2022/12/20 11:30:46;;;;;;;0.40;0.40;;;;;;;10.12;100.00;101002.34;4912300;29;20035;-62
2022/12/20 11:33:43;;;;;;;0.50;0.50;;;;;;;10.15;100.00;101001.06;4907840;29;20368;-62
2022/12/20 11:36:48;;;;;;;0.50;0.50;;;;;;;10.18;100.00;101006.09;4915300;29;20031;-63
2022/12/20 11:39:28;;;;;;;0.45;0.45;;;;;;;10.16;100.00;101005.47;4899282;29;20122;-62
2022/12/20 11:42:18;;;;;;;0.40;0.40;;;;;;;10.17;100.00;100993.44;4913457;29;20057;-62
2022/12/20 11:45:00;;;;;;;0.40;0.40;;;;;;;10.36;100.00;100989.69;4912117;29;20538;-62